sensor_id;sensor_type;location;lat;lon;timestamp;P1;durP1;ratioP1;P2;durP2;ratioP2
76846;SDS011;65813;49.546;8.644;2023-02-11T05:17:59;28.08;;;13.18;;
76846;SDS011;65813;49.546;8.644;2023-02-11T05:21:59;30.27;;;12.87;;
76846;SDS011;65813;49.546;8.644;2023-02-11T05:26:03;27.40;;;12.57;;
76846;SDS011;65813;49.546;8.644;2023-02-11T05:30:03;25.05;;;12.52;;
76846;SDS011;65813;49.546;8.644;2023-02-11T05:34:05;25.80;;;13.43;;
76846;SDS011;65813;49.546;8.644;2023-02-11T05:38:05;26.50;;;12.80;;
76846;SDS011;65813;49.546;8.644;2023-02-11T05:42:06;20.80;;;9.67;;
76846;SDS011;65813;49.546;8.644;2023-02-11T05:46:09;27.85;;;14.85;;
76846;SDS011;65813;49.546;8.644;2023-02-11T05:50:12;27.83;;;12.90;;
76846;SDS011;65813;49.546;8.644;2023-02-11T05:54:12;24.27;;;12.77;;
76846;SDS011;65813;49.546;8.644;2023-02-11T05:58:12;23.90;;;12.67;;
76846;SDS011;65813;49.546;8.644;2023-02-11T06:02:13;19.95;;;10.60;;
76846;SDS011;65813;49.546;8.644;2023-02-11T06:06:13;22.97;;;11.10;;
76846;SDS011;65813;49.546;8.644;2023-02-11T06:10:13;24.97;;;12.43;;
76846;SDS011;65813;49.546;8.644;2023-02-11T06:14:14;26.87;;;13.00;;
76846;SDS011;65813;49.546;8.644;2023-02-11T06:18:15;24.55;;;12.38;;
76846;SDS011;65813;49.546;8.644;2023-02-11T06:22:18;24.70;;;12.60;;
76846;SDS011;65813;49.546;8.644;2023-02-11T06:26:20;23.77;;;11.65;;
76846;SDS011;65813;49.546;8.644;2023-02-11T06:30:21;24.50;;;12.23;;
76846;SDS011;65813;49.546;8.644;2023-02-11T06:34:21;27.90;;;12.73;;
76846;SDS011;65813;49.546;8.644;2023-02-11T06:38:22;26.63;;;13.73;;
76846;SDS011;65813;49.546;8.644;2023-02-11T06:42:22;26.50;;;12.47;;
76846;SDS011;65813;49.546;8.644;2023-02-11T06:46:22;27.30;;;13.33;;
76846;SDS011;65813;49.546;8.644;2023-02-11T06:50:23;26.63;;;13.17;;
76846;SDS011;65813;49.546;8.644;2023-02-11T06:54:23;23.35;;;12.18;;
76846;SDS011;65813;49.546;8.644;2023-02-11T06:58:23;23.23;;;12.13;;
76846;SDS011;65813;49.546;8.644;2023-02-11T07:02:26;29.55;;;13.07;;
76846;SDS011;65813;49.546;8.644;2023-02-11T07:06:35;24.10;;;12.82;;
76846;SDS011;65813;49.546;8.644;2023-02-11T07:10:36;25.83;;;12.95;;
76846;SDS011;65813;49.546;8.644;2023-02-11T07:14:36;27.13;;;12.53;;
76846;SDS011;65813;49.546;8.644;2023-02-11T07:18:40;27.38;;;12.60;;
76846;SDS011;65813;49.546;8.644;2023-02-11T07:22:44;27.85;;;13.02;;
76846;SDS011;65813;49.546;8.644;2023-02-11T07:26:47;26.90;;;11.93;;
76846;SDS011;65813;49.546;8.644;2023-02-11T07:30:49;24.13;;;11.52;;
76846;SDS011;65813;49.546;8.644;2023-02-11T07:34:50;27.37;;;12.13;;
76846;SDS011;65813;49.546;8.644;2023-02-11T07:38:50;24.13;;;12.50;;
76846;SDS011;65813;49.546;8.644;2023-02-11T07:43:20;28.10;;;13.68;;
76846;SDS011;65813;49.546;8.644;2023-02-11T07:47:20;25.40;;;11.30;;
76846;SDS011;65813;49.546;8.644;2023-02-11T07:51:26;25.90;;;12.70;;
76846;SDS011;65813;49.546;8.644;2023-02-11T07:55:27;29.58;;;12.93;;
76846;SDS011;65813;49.546;8.644;2023-02-11T07:59:28;26.58;;;12.93;;
76846;SDS011;65813;49.546;8.644;2023-02-11T08:03:28;25.27;;;12.60;;
76846;SDS011;65813;49.546;8.644;2023-02-11T08:07:29;23.57;;;12.10;;
76846;SDS011;65813;49.546;8.644;2023-02-11T08:11:29;26.40;;;13.13;;
76846;SDS011;65813;49.546;8.644;2023-02-11T08:15:32;25.63;;;13.20;;
76846;SDS011;65813;49.546;8.644;2023-02-11T08:23:46;24.25;;;12.38;;
76846;SDS011;65813;49.546;8.644;2023-02-11T08:27:51;25.20;;;12.13;;
76846;SDS011;65813;49.546;8.644;2023-02-11T08:31:52;27.03;;;13.27;;
76846;SDS011;65813;49.546;8.644;2023-02-11T08:36:08;27.00;;;12.50;;
76846;SDS011;65813;49.546;8.644;2023-02-11T08:40:24;23.35;;;10.68;;
76846;SDS011;65813;49.546;8.644;2023-02-11T08:44:24;23.83;;;10.85;;
76846;SDS011;65813;49.546;8.644;2023-02-11T08:48:25;24.92;;;12.60;;
76846;SDS011;65813;49.546;8.644;2023-02-11T08:52:27;25.55;;;12.73;;
76846;SDS011;65813;49.546;8.644;2023-02-11T08:56:27;22.03;;;10.70;;
76846;SDS011;65813;49.546;8.644;2023-02-11T09:00:33;26.50;;;11.55;;
76846;SDS011;65813;49.546;8.644;2023-02-11T09:04:33;25.13;;;12.10;;
76846;SDS011;65813;49.546;8.644;2023-02-11T09:08:37;25.17;;;11.67;;
76846;SDS011;65813;49.546;8.644;2023-02-11T09:12:46;23.38;;;10.75;;
76846;SDS011;65813;49.546;8.644;2023-02-11T09:16:46;30.88;;;13.23;;
76846;SDS011;65813;49.546;8.644;2023-02-11T09:21:05;27.98;;;12.80;;
76846;SDS011;65813;49.546;8.644;2023-02-11T09:25:26;24.85;;;12.43;;
76846;SDS011;65813;49.546;8.644;2023-02-11T09:29:29;21.20;;;9.73;;
76846;SDS011;65813;49.546;8.644;2023-02-11T09:33:36;23.55;;;12.13;;
76846;SDS011;65813;49.546;8.644;2023-02-11T09:37:46;26.65;;;11.32;;
76846;SDS011;65813;49.546;8.644;2023-02-11T09:46:22;27.73;;;12.60;;
76846;SDS011;65813;49.546;8.644;2023-02-11T09:50:41;26.23;;;11.70;;
76846;SDS011;65813;49.546;8.644;2023-02-11T10:00:15;26.65;;;13.27;;
76846;SDS011;65813;49.546;8.644;2023-02-11T10:04:39;25.10;;;12.13;;
76846;SDS011;65813;49.546;8.644;2023-02-11T10:22:43;23.00;;;11.65;;
76846;SDS011;65813;49.546;8.644;2023-02-11T10:26:46;26.45;;;13.15;;
76846;SDS011;65813;49.546;8.644;2023-02-11T10:30:57;24.48;;;11.80;;
76846;SDS011;65813;49.546;8.644;2023-02-11T10:35:08;23.58;;;11.55;;
76846;SDS011;65813;49.546;8.644;2023-02-11T10:43:24;24.27;;;12.10;;
76846;SDS011;65813;49.546;8.644;2023-02-11T10:47:34;28.33;;;13.10;;
76846;SDS011;65813;49.546;8.644;2023-02-11T10:52:10;24.75;;;12.27;;
76846;SDS011;65813;49.546;8.644;2023-02-11T10:56:23;27.50;;;13.07;;
76846;SDS011;65813;49.546;8.644;2023-02-11T11:00:29;27.98;;;13.52;;
76846;SDS011;65813;49.546;8.644;2023-02-11T11:04:34;26.50;;;13.43;;
76846;SDS011;65813;49.546;8.644;2023-02-11T11:16:51;27.37;;;13.43;;
76846;SDS011;65813;49.546;8.644;2023-02-11T11:21:04;24.80;;;13.93;;
76846;SDS011;65813;49.546;8.644;2023-02-11T11:25:21;24.08;;;12.88;;
76846;SDS011;65813;49.546;8.644;2023-02-11T11:29:37;23.10;;;12.65;;
76846;SDS011;65813;49.546;8.644;2023-02-11T11:33:49;27.35;;;13.35;;
76846;SDS011;65813;49.546;8.644;2023-02-11T11:38:02;23.73;;;12.07;;
76846;SDS011;65813;49.546;8.644;2023-02-11T11:42:04;26.70;;;14.07;;
76846;SDS011;65813;49.546;8.644;2023-02-11T11:46:34;23.30;;;12.98;;
76846;SDS011;65813;49.546;8.644;2023-02-11T11:51:19;25.48;;;12.93;;
76846;SDS011;65813;49.546;8.644;2023-02-11T11:55:10;24.00;;;12.23;;
76846;SDS011;65813;49.546;8.644;2023-02-11T11:59:18;25.70;;;12.88;;
76846;SDS011;65813;49.546;8.644;2023-02-11T12:08:00;25.80;;;13.45;;
76846;SDS011;65813;49.546;8.644;2023-02-11T12:16:52;25.20;;;13.05;;
76846;SDS011;65813;49.546;8.644;2023-02-11T12:29:28;26.42;;;13.30;;
76846;SDS011;65813;49.546;8.644;2023-02-11T12:33:59;25.02;;;13.38;;
76846;SDS011;65813;49.546;8.644;2023-02-11T12:47:23;24.83;;;13.15;;
76846;SDS011;65813;49.546;8.644;2023-02-11T13:00:50;24.85;;;12.65;;
76846;SDS011;65813;49.546;8.644;2023-02-11T13:05:00;26.80;;;13.32;;
76846;SDS011;65813;49.546;8.644;2023-02-11T13:09:04;23.80;;;13.25;;
76846;SDS011;65813;49.546;8.644;2023-02-11T13:13:21;28.13;;;12.27;;
76846;SDS011;65813;49.546;8.644;2023-02-11T13:17:27;26.02;;;11.95;;
76846;SDS011;65813;49.546;8.644;2023-02-11T13:21:46;25.95;;;12.82;;
76846;SDS011;65813;49.546;8.644;2023-02-11T13:25:53;25.58;;;12.30;;
76846;SDS011;65813;49.546;8.644;2023-02-11T13:30:19;26.55;;;13.50;;
76846;SDS011;65813;49.546;8.644;2023-02-11T13:38:52;25.45;;;13.13;;
76846;SDS011;65813;49.546;8.644;2023-02-11T13:42:57;27.02;;;13.00;;
76846;SDS011;65813;49.546;8.644;2023-02-11T13:47:13;28.50;;;13.70;;
76846;SDS011;65813;49.546;8.644;2023-02-11T13:51:33;26.55;;;12.57;;
76846;SDS011;65813;49.546;8.644;2023-02-11T13:55:36;24.08;;;12.57;;
76846;SDS011;65813;49.546;8.644;2023-02-11T14:03:38;27.53;;;12.20;;
76846;SDS011;65813;49.546;8.644;2023-02-11T14:12:31;24.45;;;13.15;;
76846;SDS011;65813;49.546;8.644;2023-02-11T14:16:33;22.00;;;11.13;;
76846;SDS011;65813;49.546;8.644;2023-02-11T14:20:35;24.85;;;11.50;;
76846;SDS011;65813;49.546;8.644;2023-02-11T14:24:39;24.35;;;11.93;;
76846;SDS011;65813;49.546;8.644;2023-02-11T14:41:56;22.03;;;10.60;;
76846;SDS011;65813;49.546;8.644;2023-02-11T14:46:00;25.13;;;12.50;;
76846;SDS011;65813;49.546;8.644;2023-02-11T14:50:02;25.48;;;11.80;;
76846;SDS011;65813;49.546;8.644;2023-02-11T14:54:13;28.90;;;11.85;;
76846;SDS011;65813;49.546;8.644;2023-02-11T14:58:18;24.30;;;11.93;;
76846;SDS011;65813;49.546;8.644;2023-02-11T15:02:22;22.55;;;10.60;;
76846;SDS011;65813;49.546;8.644;2023-02-11T15:06:28;22.80;;;10.40;;
76846;SDS011;65813;49.546;8.644;2023-02-11T15:10:41;22.50;;;11.90;;
76846;SDS011;65813;49.546;8.644;2023-02-11T15:14:47;22.33;;;11.27;;
76846;SDS011;65813;49.546;8.644;2023-02-11T15:22:59;25.35;;;10.55;;
76846;SDS011;65813;49.546;8.644;2023-02-11T15:27:03;23.98;;;10.63;;
76846;SDS011;65813;49.546;8.644;2023-02-11T15:31:20;23.27;;;10.77;;
76846;SDS011;65813;49.546;8.644;2023-02-11T15:35:22;24.38;;;11.07;;
76846;SDS011;65813;49.546;8.644;2023-02-11T15:39:31;26.65;;;11.77;;
76846;SDS011;65813;49.546;8.644;2023-02-11T15:43:45;24.15;;;11.70;;
76846;SDS011;65813;49.546;8.644;2023-02-11T15:47:48;24.60;;;11.43;;
76846;SDS011;65813;49.546;8.644;2023-02-11T15:51:51;22.27;;;11.43;;
76846;SDS011;65813;49.546;8.644;2023-02-11T15:56:39;23.40;;;11.45;;
76846;SDS011;65813;49.546;8.644;2023-02-11T16:00:21;22.10;;;10.65;;
76846;SDS011;65813;49.546;8.644;2023-02-11T16:04:24;22.42;;;11.57;;
76846;SDS011;65813;49.546;8.644;2023-02-11T16:08:27;26.10;;;11.77;;
76846;SDS011;65813;49.546;8.644;2023-02-11T16:12:28;26.38;;;13.07;;
76846;SDS011;65813;49.546;8.644;2023-02-11T16:16:30;26.83;;;12.63;;
76846;SDS011;65813;49.546;8.644;2023-02-11T16:20:32;26.20;;;12.60;;
76846;SDS011;65813;49.546;8.644;2023-02-11T16:24:33;26.88;;;12.75;;
76846;SDS011;65813;49.546;8.644;2023-02-11T16:28:36;24.63;;;12.07;;
76846;SDS011;65813;49.546;8.644;2023-02-11T16:32:36;21.48;;;11.07;;
76846;SDS011;65813;49.546;8.644;2023-02-11T16:36:37;24.23;;;12.10;;
76846;SDS011;65813;49.546;8.644;2023-02-11T16:40:37;26.60;;;13.93;;
76846;SDS011;65813;49.546;8.644;2023-02-11T16:44:38;25.23;;;12.38;;
76846;SDS011;65813;49.546;8.644;2023-02-11T16:48:38;34.22;;;14.52;;
76846;SDS011;65813;49.546;8.644;2023-02-11T16:52:39;29.10;;;15.15;;
76846;SDS011;65813;49.546;8.644;2023-02-11T16:56:42;28.48;;;14.65;;
76846;SDS011;65813;49.546;8.644;2023-02-11T17:00:43;31.42;;;16.05;;
76846;SDS011;65813;49.546;8.644;2023-02-11T17:04:44;28.75;;;15.05;;
76846;SDS011;65813;49.546;8.644;2023-02-11T17:08:45;39.35;;;19.08;;
76846;SDS011;65813;49.546;8.644;2023-02-11T17:12:45;31.00;;;14.87;;
76846;SDS011;65813;49.546;8.644;2023-02-11T17:16:47;28.83;;;14.90;;
76846;SDS011;65813;49.546;8.644;2023-02-11T17:20:47;31.67;;;16.53;;
76846;SDS011;65813;49.546;8.644;2023-02-11T17:24:48;28.00;;;14.05;;
76846;SDS011;65813;49.546;8.644;2023-02-11T17:28:48;26.17;;;13.40;;
76846;SDS011;65813;49.546;8.644;2023-02-11T17:32:49;30.67;;;14.77;;
76846;SDS011;65813;49.546;8.644;2023-02-11T17:36:49;33.13;;;15.40;;
76846;SDS011;65813;49.546;8.644;2023-02-11T17:40:57;32.90;;;15.68;;
76846;SDS011;65813;49.546;8.644;2023-02-11T17:44:59;30.00;;;14.88;;
76846;SDS011;65813;49.546;8.644;2023-02-11T17:48:59;29.07;;;14.47;;
76846;SDS011;65813;49.546;8.644;2023-02-11T17:53:00;30.48;;;13.73;;
76846;SDS011;65813;49.546;8.644;2023-02-11T17:57:01;31.50;;;13.53;;
76846;SDS011;65813;49.546;8.644;2023-02-11T18:01:01;26.00;;;12.97;;
76846;SDS011;65813;49.546;8.644;2023-02-11T18:05:02;26.40;;;12.38;;
76846;SDS011;65813;49.546;8.644;2023-02-11T18:09:03;25.38;;;12.73;;
76846;SDS011;65813;49.546;8.644;2023-02-11T18:13:03;27.42;;;13.90;;
76846;SDS011;65813;49.546;8.644;2023-02-11T18:17:03;25.93;;;12.60;;
76846;SDS011;65813;49.546;8.644;2023-02-11T18:21:04;33.70;;;16.57;;
76846;SDS011;65813;49.546;8.644;2023-02-11T18:25:07;29.95;;;14.02;;
76846;SDS011;65813;49.546;8.644;2023-02-11T18:29:08;29.75;;;14.05;;
76846;SDS011;65813;49.546;8.644;2023-02-11T18:33:08;25.73;;;12.88;;
76846;SDS011;65813;49.546;8.644;2023-02-11T18:37:13;29.92;;;14.52;;
76846;SDS011;65813;49.546;8.644;2023-02-11T18:41:15;26.13;;;13.15;;
76846;SDS011;65813;49.546;8.644;2023-02-11T18:45:15;29.23;;;13.57;;
76846;SDS011;65813;49.546;8.644;2023-02-11T18:49:16;31.10;;;14.17;;
76846;SDS011;65813;49.546;8.644;2023-02-11T18:53:16;29.55;;;14.90;;
76846;SDS011;65813;49.546;8.644;2023-02-11T18:57:17;27.33;;;14.73;;
76846;SDS011;65813;49.546;8.644;2023-02-11T19:01:18;30.60;;;14.30;;
76846;SDS011;65813;49.546;8.644;2023-02-11T19:05:20;28.00;;;14.13;;
76846;SDS011;65813;49.546;8.644;2023-02-11T19:09:20;26.13;;;13.52;;
76846;SDS011;65813;49.546;8.644;2023-02-11T19:13:21;27.73;;;14.13;;
76846;SDS011;65813;49.546;8.644;2023-02-11T19:17:21;28.67;;;14.63;;
76846;SDS011;65813;49.546;8.644;2023-02-11T19:21:21;27.50;;;13.33;;
76846;SDS011;65813;49.546;8.644;2023-02-11T19:25:21;25.83;;;13.27;;
76846;SDS011;65813;49.546;8.644;2023-02-11T19:29:22;28.97;;;15.40;;
76846;SDS011;65813;49.546;8.644;2023-02-11T19:33:23;28.58;;;14.90;;
76846;SDS011;65813;49.546;8.644;2023-02-11T19:37:23;28.20;;;15.17;;
76846;SDS011;65813;49.546;8.644;2023-02-11T19:41:23;26.73;;;14.30;;
76846;SDS011;65813;49.546;8.644;2023-02-11T19:45:24;30.10;;;14.13;;
76846;SDS011;65813;49.546;8.644;2023-02-11T19:49:25;29.52;;;15.70;;
76846;SDS011;65813;49.546;8.644;2023-02-11T19:53:27;29.40;;;14.90;;
76846;SDS011;65813;49.546;8.644;2023-02-11T19:57:27;29.80;;;14.50;;
76846;SDS011;65813;49.546;8.644;2023-02-11T20:01:27;26.43;;;14.43;;
76846;SDS011;65813;49.546;8.644;2023-02-11T20:05:27;27.80;;;14.20;;
76846;SDS011;65813;49.546;8.644;2023-02-11T20:09:28;30.30;;;13.87;;
76846;SDS011;65813;49.546;8.644;2023-02-11T20:13:30;28.38;;;13.18;;
76846;SDS011;65813;49.546;8.644;2023-02-11T20:17:30;31.23;;;14.35;;
76846;SDS011;65813;49.546;8.644;2023-02-11T20:21:31;35.25;;;16.80;;
76846;SDS011;65813;49.546;8.644;2023-02-11T20:25:31;34.35;;;15.93;;
76846;SDS011;65813;49.546;8.644;2023-02-11T20:29:31;28.00;;;14.30;;
76846;SDS011;65813;49.546;8.644;2023-02-11T20:33:32;30.27;;;14.00;;
76846;SDS011;65813;49.546;8.644;2023-02-11T20:37:33;26.98;;;14.60;;
76846;SDS011;65813;49.546;8.644;2023-02-11T20:41:34;26.15;;;14.27;;
76846;SDS011;65813;49.546;8.644;2023-02-11T20:45:38;28.15;;;15.32;;
76846;SDS011;65813;49.546;8.644;2023-02-11T20:49:38;28.83;;;15.40;;
76846;SDS011;65813;49.546;8.644;2023-02-11T20:53:40;28.20;;;13.47;;
76846;SDS011;65813;49.546;8.644;2023-02-11T20:57:42;32.08;;;15.05;;
76846;SDS011;65813;49.546;8.644;2023-02-11T21:01:44;29.23;;;14.30;;
76846;SDS011;65813;49.546;8.644;2023-02-11T21:05:49;30.80;;;15.70;;
76846;SDS011;65813;49.546;8.644;2023-02-11T21:09:49;33.17;;;16.20;;
76846;SDS011;65813;49.546;8.644;2023-02-11T21:13:50;34.90;;;16.57;;
76846;SDS011;65813;49.546;8.644;2023-02-11T21:17:50;30.80;;;15.75;;
76846;SDS011;65813;49.546;8.644;2023-02-11T21:21:51;30.35;;;15.52;;
76846;SDS011;65813;49.546;8.644;2023-02-11T21:25:52;30.15;;;15.73;;
76846;SDS011;65813;49.546;8.644;2023-02-11T21:29:52;24.02;;;12.80;;
76846;SDS011;65813;49.546;8.644;2023-02-11T21:33:53;34.93;;;16.60;;
76846;SDS011;65813;49.546;8.644;2023-02-11T21:37:54;34.95;;;16.63;;
76846;SDS011;65813;49.546;8.644;2023-02-11T21:41:54;31.70;;;16.43;;
76846;SDS011;65813;49.546;8.644;2023-02-11T21:45:55;35.28;;;16.15;;
76846;SDS011;65813;49.546;8.644;2023-02-11T21:49:55;31.05;;;15.02;;
76846;SDS011;65813;49.546;8.644;2023-02-11T21:53:56;29.53;;;13.93;;
76846;SDS011;65813;49.546;8.644;2023-02-11T21:58:00;28.65;;;14.57;;
76846;SDS011;65813;49.546;8.644;2023-02-11T22:02:00;28.27;;;14.53;;
76846;SDS011;65813;49.546;8.644;2023-02-11T22:06:04;29.93;;;14.20;;
76846;SDS011;65813;49.546;8.644;2023-02-11T22:10:05;29.80;;;14.20;;
76846;SDS011;65813;49.546;8.644;2023-02-11T22:14:06;29.95;;;13.82;;
